Time;durP1;ratioP1;P1;durP2;ratioP2;P2;SDS_P1;SDS_P2;PMS_P1;PMS_P2;Temp;Humidity;BMP_temperature;BMP_pressure;BME280_temperature;BME280_humidity;BME280_pressure;Samples;Min_cycle;Max_cycle;Signal;HPM_P1;HPM_P2
2024/01/31 00:02:15;;;;;;;0.00;0.00;;;;;;;;;;4919959;29;20039;-86
2024/01/31 00:04:40;;;;;;;0.00;0.00;;;;;;;;;;4904520;29;20031;-87
2024/01/31 00:07:06;;;;;;;0.00;0.00;;;;;;;;;;4937784;29;20110;-85
2024/01/31 00:09:31;;;;;;;0.00;0.00;;;;;;;;;;4937352;29;20038;-85
2024/01/31 00:11:57;;;;;;;0.00;0.00;;;;;;;;;;4905194;29;20083;-85
2024/01/31 00:14:22;;;;;;;0.00;0.00;;;;;;;;;;4938181;29;20457;-86
2024/01/31 00:16:48;;;;;;;0.00;0.00;;;;;;;;;;4920852;29;20046;-86
2024/01/31 00:19:13;;;;;;;0.00;0.00;;;;;;;;;;4938136;29;20024;-87
2024/01/31 00:21:39;;;;;;;0.00;0.00;;;;;;;;;;4922335;29;20083;-87
2024/01/31 00:24:05;;;;;;;0.00;0.00;;;;;;;;;;4939285;29;20027;-87
2024/01/31 00:26:31;;;;;;;0.00;0.00;;;;;;;;;;4938653;29;20064;-86
2024/01/31 00:28:56;;;;;;;0.00;0.00;;;;;;;;;;4939940;29;20438;-86
2024/01/31 00:31:22;;;;;;;0.00;0.00;;;;;;;;;;4922644;29;20027;-86
2024/01/31 00:33:47;;;;;;;0.00;0.00;;;;;;;;;;4940090;29;20036;-85
2024/01/31 00:36:15;;;;;;;0.00;0.00;;;;;;;;;;4939084;29;20035;-86
2024/01/31 00:38:40;;;;;;;0.00;0.00;;;;;;;;;;4921697;29;20040;-85
2024/01/31 00:41:06;;;;;;;0.00;0.00;;;;;;;;;;4938366;29;20035;-86
2024/01/31 00:43:32;;;;;;;0.00;0.00;;;;;;;;;;4939148;29;20034;-87
2024/01/31 00:45:57;;;;;;;0.00;0.00;;;;;;;;;;4940678;29;20039;-85
2024/01/31 00:48:23;;;;;;;0.00;0.00;;;;;;;;;;4924423;29;20040;-86
2024/01/31 00:50:48;;;;;;;0.00;0.00;;;;;;;;;;4924041;29;20036;-86
2024/01/31 00:53:14;;;;;;;0.00;0.00;;;;;;;;;;4941496;29;20095;-85
2024/01/31 00:55:39;;;;;;;0.00;0.00;;;;;;;;;;4939688;29;20044;-86
2024/01/31 00:58:05;;;;;;;0.00;0.00;;;;;;;;;;4940763;29;20043;-86
2024/01/31 01:00:31;;;;;;;0.00;0.00;;;;;;;;;;4926617;29;20047;-84
2024/01/31 01:02:56;;;;;;;0.00;0.00;;;;;;;;;;4942863;29;20167;-85
2024/01/31 01:05:22;;;;;;;0.00;0.00;;;;;;;;;;4942554;29;20028;-85
2024/01/31 01:07:47;;;;;;;0.00;0.00;;;;;;;;;;4943796;29;20035;-85
2024/01/31 01:10:13;;;;;;;0.00;0.00;;;;;;;;;;4944047;29;20031;-86
2024/01/31 01:12:38;;;;;;;0.00;0.00;;;;;;;;;;4909284;29;20538;-86
2024/01/31 01:15:05;;;;;;;0.00;0.00;;;;;;;;;;4943014;29;20042;-85
2024/01/31 01:17:31;;;;;;;0.00;0.00;;;;;;;;;;4929171;29;20040;-85
2024/01/31 01:19:57;;;;;;;0.00;0.00;;;;;;;;;;4928632;29;20082;-86
2024/01/31 01:22:22;;;;;;;0.00;0.00;;;;;;;;;;4950532;29;20062;-85
2024/01/31 01:24:48;;;;;;;0.00;0.00;;;;;;;;;;4952798;29;20032;-86
2024/01/31 01:27:13;;;;;;;0.00;0.00;;;;;;;;;;4935837;29;20024;-85
2024/01/31 01:29:39;;;;;;;0.00;0.00;;;;;;;;;;4913619;29;20465;-86
2024/01/31 01:32:05;;;;;;;0.00;0.00;;;;;;;;;;4928938;29;20032;-86
2024/01/31 01:34:30;;;;;;;0.00;0.00;;;;;;;;;;4910458;29;20461;-85
2024/01/31 01:36:56;;;;;;;0.00;0.00;;;;;;;;;;4941348;29;20383;-86
2024/01/31 01:39:21;;;;;;;0.00;0.00;;;;;;;;;;4892926;29;20106;-85
2024/01/31 01:41:50;;;;;;;0.00;0.00;;;;;;;;;;4924748;29;20042;-85
2024/01/31 01:44:16;;;;;;;0.00;0.00;;;;;;;;;;4908974;29;20191;-85
2024/01/31 01:46:42;;;;;;;0.00;0.00;;;;;;;;;;4928430;29;20349;-85
2024/01/31 01:49:08;;;;;;;0.00;0.00;;;;;;;;;;4914585;29;20127;-86
2024/01/31 01:51:33;;;;;;;0.00;0.00;;;;;;;;;;4915313;29;20070;-85
2024/01/31 01:53:59;;;;;;;0.00;0.00;;;;;;;;;;4928457;29;20051;-86
2024/01/31 01:56:24;;;;;;;0.00;0.00;;;;;;;;;;4913546;29;20059;-86
2024/01/31 01:58:51;;;;;;;0.00;0.00;;;;;;;;;;4931142;29;20083;-86
2024/01/31 02:01:16;;;;;;;0.00;0.00;;;;;;;;;;4911672;29;20123;-85
2024/01/31 02:03:43;;;;;;;0.00;0.00;;;;;;;;;;4910456;29;20063;-86
2024/01/31 02:06:08;;;;;;;0.00;0.00;;;;;;;;;;4928048;29;20051;-85
2024/01/31 02:08:34;;;;;;;0.00;0.00;;;;;;;;;;4926211;29;20036;-86
2024/01/31 02:10:59;;;;;;;0.00;0.00;;;;;;;;;;4924603;29;20121;-85
2024/01/31 02:13:25;;;;;;;0.00;0.00;;;;;;;;;;4924351;29;20039;-85
2024/01/31 02:15:54;;;;;;;0.00;0.00;;;;;;;;;;4943657;29;20079;-85
2024/01/31 02:18:21;;;;;;;0.00;0.00;;;;;;;;;;4948518;29;20027;-85
2024/01/31 02:20:46;;;;;;;0.00;0.00;;;;;;;;;;4939066;29;20028;-85
2024/01/31 02:23:12;;;;;;;0.00;0.00;;;;;;;;;;4905482;29;20053;-85
2024/01/31 02:25:38;;;;;;;0.00;0.00;;;;;;;;;;4921606;29;20106;-85
2024/01/31 02:28:04;;;;;;;0.00;0.00;;;;;;;;;;4921575;29;20362;-85
2024/01/31 02:30:29;;;;;;;0.00;0.00;;;;;;;;;;4906419;29;20074;-86
2024/01/31 02:32:56;;;;;;;0.00;0.00;;;;;;;;;;4921999;29;20076;-85
2024/01/31 02:35:24;;;;;;;0.00;0.00;;;;;;;;;;4921960;29;20038;-85
2024/01/31 02:37:50;;;;;;;0.00;0.00;;;;;;;;;;4921633;29;20126;-86
2024/01/31 02:40:16;;;;;;;0.00;0.00;;;;;;;;;;4939079;29;20449;-86
2024/01/31 02:42:43;;;;;;;0.00;0.00;;;;;;;;;;4939216;29;20442;-86
2024/01/31 02:45:08;;;;;;;0.00;0.00;;;;;;;;;;4908876;29;20031;-86
2024/01/31 02:47:34;;;;;;;0.00;0.00;;;;;;;;;;4930485;29;20027;-86
2024/01/31 02:50:03;;;;;;;0.00;0.00;;;;;;;;;;4941891;29;20036;-87
2024/01/31 02:52:28;;;;;;;0.00;0.00;;;;;;;;;;4938418;29;20036;-87
2024/01/31 02:54:54;;;;;;;0.00;0.00;;;;;;;;;;4906247;29;20448;-87
2024/01/31 02:57:20;;;;;;;0.00;0.00;;;;;;;;;;4905414;29;20434;-87
2024/01/31 02:59:45;;;;;;;0.00;0.00;;;;;;;;;;4937675;29;20110;-85
2024/01/31 03:02:11;;;;;;;0.00;0.00;;;;;;;;;;4926540;29;20125;-85
2024/01/31 03:04:36;;;;;;;0.00;0.00;;;;;;;;;;4929303;29;20071;-88
2024/01/31 03:07:02;;;;;;;0.00;0.00;;;;;;;;;;4927769;29;20035;-87
2024/01/31 03:09:27;;;;;;;0.00;0.00;;;;;;;;;;4941480;29;20039;-88
2024/01/31 03:11:53;;;;;;;0.00;0.00;;;;;;;;;;4956652;29;20043;-86
2024/01/31 03:14:20;;;;;;;0.00;0.00;;;;;;;;;;4924877;29;20035;-87
2024/01/31 03:16:46;;;;;;;0.00;0.00;;;;;;;;;;4940924;29;20038;-86
2024/01/31 03:19:11;;;;;;;0.00;0.00;;;;;;;;;;4939432;29;20065;-85
2024/01/31 03:21:37;;;;;;;0.00;0.00;;;;;;;;;;4940468;29;20410;-87
2024/01/31 03:24:03;;;;;;;0.00;0.00;;;;;;;;;;4923843;29;20060;-86
2024/01/31 03:26:28;;;;;;;0.00;0.00;;;;;;;;;;4930373;29;20042;-87
2024/01/31 03:28:54;;;;;;;0.00;0.00;;;;;;;;;;4942287;29;20051;-88
2024/01/31 03:31:20;;;;;;;0.00;0.00;;;;;;;;;;4940135;29;20110;-87
2024/01/31 03:33:45;;;;;;;0.00;0.00;;;;;;;;;;4956616;29;20096;-87
2024/01/31 03:36:11;;;;;;;0.00;0.00;;;;;;;;;;4953208;29;20417;-87
2024/01/31 03:38:37;;;;;;;0.00;0.00;;;;;;;;;;4938612;29;20047;-87
2024/01/31 03:41:09;;;;;;;0.00;0.00;;;;;;;;;;4957506;29;20040;-86
2024/01/31 03:43:35;;;;;;;0.00;0.00;;;;;;;;;;4956322;29;20027;-86
2024/01/31 03:46:04;;;;;;;0.00;0.00;;;;;;;;;;4916852;29;20458;-84
2024/01/31 03:48:30;;;;;;;0.00;0.00;;;;;;;;;;4907331;29;20036;-86
2024/01/31 03:50:58;;;;;;;0.00;0.00;;;;;;;;;;4938846;29;20039;-84
2024/01/31 03:53:26;;;;;;;0.00;0.00;;;;;;;;;;4939326;29;20036;-85
2024/01/31 03:55:52;;;;;;;0.00;0.00;;;;;;;;;;4913072;29;20051;-86
2024/01/31 03:58:18;;;;;;;0.00;0.00;;;;;;;;;;4942942;29;20509;-85
2024/01/31 04:00:44;;;;;;;0.00;0.00;;;;;;;;;;4945216;29;20095;-86
2024/01/31 04:03:09;;;;;;;0.10;0.00;;;;;;;;;;4927585;29;20027;-85
2024/01/31 04:05:35;;;;;;;0.00;0.00;;;;;;;;;;4931340;29;20112;-85
2024/01/31 04:08:01;;;;;;;0.00;0.00;;;;;;;;;;4941978;29;20169;-85
2024/01/31 04:10:27;;;;;;;0.00;0.00;;;;;;;;;;4925861;29;20030;-86
2024/01/31 04:12:52;;;;;;;0.00;0.00;;;;;;;;;;4944891;29;20028;-86
2024/01/31 04:15:18;;;;;;;0.00;0.00;;;;;;;;;;4937473;29;20032;-86
2024/01/31 04:17:44;;;;;;;0.00;0.00;;;;;;;;;;4937343;29;20330;-86
2024/01/31 04:20:11;;;;;;;0.00;0.00;;;;;;;;;;4936767;29;20024;-86
2024/01/31 04:22:37;;;;;;;0.00;0.00;;;;;;;;;;4935606;29;20024;-87
2024/01/31 04:25:03;;;;;;;0.00;0.00;;;;;;;;;;4936864;29;20441;-86
2024/01/31 04:27:29;;;;;;;0.00;0.00;;;;;;;;;;4937101;29;20035;-86
2024/01/31 04:29:54;;;;;;;0.10;0.00;;;;;;;;;;4918772;29;20035;-86
2024/01/31 04:32:21;;;;;;;0.00;0.00;;;;;;;;;;4936544;29;20738;-85
2024/01/31 04:34:47;;;;;;;0.00;0.00;;;;;;;;;;4923852;29;20040;-86
2024/01/31 04:39:56;;;;;;;0.00;0.00;;;;;;;;;;4940585;29;20473;-86
2024/01/31 04:42:22;;;;;;;0.00;0.00;;;;;;;;;;4923634;29;20035;-86
2024/01/31 04:44:47;;;;;;;0.00;0.00;;;;;;;;;;4908066;29;20032;-86
2024/01/31 04:47:13;;;;;;;0.00;0.00;;;;;;;;;;4923652;29;20529;-86
2024/01/31 04:49:39;;;;;;;0.00;0.00;;;;;;;;;;4923858;29;20040;-86
2024/01/31 04:52:05;;;;;;;0.00;0.00;;;;;;;;;;4923336;29;20066;-86
2024/01/31 04:54:30;;;;;;;0.00;0.00;;;;;;;;;;4907756;29;20389;-85
2024/01/31 04:56:56;;;;;;;0.00;0.00;;;;;;;;;;4940548;29;20031;-85
2024/01/31 04:59:22;;;;;;;0.00;0.00;;;;;;;;;;4940143;29;20054;-86
2024/01/31 05:01:49;;;;;;;0.00;0.00;;;;;;;;;;4923967;29;20493;-86
2024/01/31 05:04:14;;;;;;;0.00;0.00;;;;;;;;;;4921999;29;20070;-86
2024/01/31 05:06:40;;;;;;;0.00;0.00;;;;;;;;;;4922609;29;20040;-86
2024/01/31 05:09:06;;;;;;;0.00;0.00;;;;;;;;;;4938926;29;20032;-86
2024/01/31 05:11:33;;;;;;;0.00;0.00;;;;;;;;;;4940451;29;20042;-87
2024/01/31 05:13:58;;;;;;;0.00;0.00;;;;;;;;;;4923322;29;20027;-87
2024/01/31 05:16:24;;;;;;;0.00;0.00;;;;;;;;;;4939974;29;20031;-87
2024/01/31 05:18:49;;;;;;;0.00;0.00;;;;;;;;;;4907846;29;20036;-87
2024/01/31 05:21:15;;;;;;;0.00;0.00;;;;;;;;;;4940161;29;20090;-87
2024/01/31 05:23:41;;;;;;;0.00;0.00;;;;;;;;;;4939958;29;20462;-86
2024/01/31 05:26:08;;;;;;;0.00;0.00;;;;;;;;;;4925239;29;20043;-86
2024/01/31 05:28:34;;;;;;;0.00;0.00;;;;;;;;;;4941320;29;20035;-86
2024/01/31 05:30:59;;;;;;;0.00;0.00;;;;;;;;;;4922108;29;20047;-86
2024/01/31 05:33:25;;;;;;;0.00;0.00;;;;;;;;;;4922006;29;20465;-87
2024/01/31 05:35:50;;;;;;;0.00;0.00;;;;;;;;;;4906110;29;20458;-86
2024/01/31 05:38:16;;;;;;;0.00;0.00;;;;;;;;;;4924624;29;20418;-86
2024/01/31 05:40:44;;;;;;;0.00;0.00;;;;;;;;;;4940445;29;20028;-81
2024/01/31 05:43:12;;;;;;;0.00;0.00;;;;;;;;;;4940221;29;20031;-86
2024/01/31 05:45:38;;;;;;;0.00;0.00;;;;;;;;;;4942463;29;20047;-87
2024/01/31 05:48:04;;;;;;;0.00;0.00;;;;;;;;;;4924459;29;20134;-87
2024/01/31 05:50:30;;;;;;;0.00;0.00;;;;;;;;;;4907670;29;20090;-84
2024/01/31 05:57:03;;;;;;;0.00;0.00;;;;;;;;;;4863268;29;20044;-84
2024/01/31 05:59:36;;;;;;;0.00;0.00;;;;;;;;;;4840929;29;20040;-86
2024/01/31 06:02:01;;;;;;;0.00;0.00;;;;;;;;;;4851625;29;20089;-81
2024/01/31 06:04:27;;;;;;;0.00;0.00;;;;;;;;;;4862246;29;20475;-80
2024/01/31 06:06:53;;;;;;;0.00;0.00;;;;;;;;;;4901584;29;20361;-81
2024/01/31 06:09:18;;;;;;;0.00;0.00;;;;;;;;;;4935358;29;20138;-81
2024/01/31 06:12:08;;;;;;;0.00;0.00;;;;;;;;;;4937493;29;20131;-83
2024/01/31 06:14:37;;;;;;;0.00;0.00;;;;;;;;;;4921649;29;20040;-84
2024/01/31 06:17:24;;;;;;;0.00;0.00;;;;;;;;;;4891863;29;20467;-83
2024/01/31 06:19:52;;;;;;;0.00;0.00;;;;;;;;;;4906364;29;20039;-87
2024/01/31 06:22:18;;;;;;;0.10;0.00;;;;;;;;;;4941667;29;20031;-86
2024/01/31 06:24:43;;;;;;;0.08;0.08;;;;;;;;;;4933955;29;20095;-83
2024/01/31 06:27:09;;;;;;;0.28;0.10;;;;;;;;;;4900646;29;20172;-85
2024/01/31 06:29:34;;;;;;;0.00;0.00;;;;;;;;;;4937577;29;20042;-85
2024/01/31 06:32:00;;;;;;;0.00;0.00;;;;;;;;;;4920155;29;20576;-83
2024/01/31 06:34:52;;;;;;;0.00;0.00;;;;;;;;;;4930236;29;20087;-86
2024/01/31 06:37:17;;;;;;;0.00;0.00;;;;;;;;;;4926002;29;20138;-84
2024/01/31 06:39:43;;;;;;;0.00;0.00;;;;;;;;;;4938513;29;20071;-85
2024/01/31 06:42:09;;;;;;;0.00;0.00;;;;;;;;;;4930612;29;20121;-83
2024/01/31 06:44:35;;;;;;;0.00;0.00;;;;;;;;;;4925510;29;20367;-81
2024/01/31 06:47:33;;;;;;;0.00;0.00;;;;;;;;;;4940347;29;20346;-82
2024/01/31 06:49:58;;;;;;;0.00;0.00;;;;;;;;;;4934544;29;20444;-83
2024/01/31 06:52:30;;;;;;;0.00;0.00;;;;;;;;;;4957065;29;20050;-81
2024/01/31 06:54:56;;;;;;;0.00;0.00;;;;;;;;;;4954193;29;20037;-81
2024/01/31 06:57:21;;;;;;;0.00;0.00;;;;;;;;;;4956933;28;20118;-83
2024/01/31 06:59:47;;;;;;;0.00;0.00;;;;;;;;;;4942600;29;20038;-87
2024/01/31 07:02:15;;;;;;;0.00;0.00;;;;;;;;;;4963184;29;20118;-84
2024/01/31 07:04:57;;;;;;;0.00;0.00;;;;;;;;;;4930100;29;20035;-84
2024/01/31 07:07:23;;;;;;;0.00;0.00;;;;;;;;;;5001481;23;20469;-84
2024/01/31 07:09:48;;;;;;;0.00;0.00;;;;;;;;;;4944668;28;20042;-84
2024/01/31 07:12:14;;;;;;;0.00;0.00;;;;;;;;;;4943007;29;20024;-83
2024/01/31 07:17:29;;;;;;;0.00;0.00;;;;;;;;;;4963755;23;20063;-85
2024/01/31 07:19:56;;;;;;;0.00;0.00;;;;;;;;;;4942252;29;20039;-85
2024/01/31 07:22:21;;;;;;;0.00;0.00;;;;;;;;;;4927390;29;20055;-84
2024/01/31 07:24:47;;;;;;;0.00;0.00;;;;;;;;;;4956672;28;20062;-83
2024/01/31 07:27:13;;;;;;;0.00;0.00;;;;;;;;;;4929188;28;20050;-83
2024/01/31 07:29:38;;;;;;;0.00;0.00;;;;;;;;;;4958601;28;20045;-83
2024/01/31 07:32:04;;;;;;;0.00;0.00;;;;;;;;;;4938828;29;20034;-85
2024/01/31 07:34:30;;;;;;;0.00;0.00;;;;;;;;;;4957042;29;20105;-83
2024/01/31 07:36:56;;;;;;;0.00;0.00;;;;;;;;;;4940050;29;20541;-83
2024/01/31 07:39:21;;;;;;;0.00;0.00;;;;;;;;;;4978966;28;20026;-86
2024/01/31 07:41:50;;;;;;;0.00;0.00;;;;;;;;;;4957863;28;20026;-84
2024/01/31 07:44:16;;;;;;;0.00;0.00;;;;;;;;;;4989257;28;20027;-84
2024/01/31 07:46:41;;;;;;;0.00;0.00;;;;;;;;;;4959703;28;20145;-85
2024/01/31 07:49:54;;;;;;;0.00;0.00;;;;;;;;;;4958812;28;20034;-86
2024/01/31 07:52:40;;;;;;;0.00;0.00;;;;;;;;;;4895044;29;20037;-83
2024/01/31 07:58:50;;;;;;;0.00;0.00;;;;;;;;;;4843673;29;20060;-80
2024/01/31 08:01:42;;;;;;;0.00;0.00;;;;;;;;;;4889132;29;20070;-83
2024/01/31 08:06:47;;;;;;;0.00;0.00;;;;;;;;;;4952082;23;20071;-85
2024/01/31 08:09:15;;;;;;;0.00;0.00;;;;;;;;;;4914720;29;20055;-85
2024/01/31 08:11:44;;;;;;;0.00;0.00;;;;;;;;;;4920571;29;20144;-85
2024/01/31 08:14:10;;;;;;;0.00;0.00;;;;;;;;;;4945946;28;20034;-83
2024/01/31 08:16:36;;;;;;;0.10;0.00;;;;;;;;;;4911557;29;20346;-81
2024/01/31 08:23:41;;;;;;;0.00;0.00;;;;;;;;;;4848908;29;20046;-84
2024/01/31 08:26:07;;;;;;;0.00;0.00;;;;;;;;;;4935953;23;20059;-85
2024/01/31 08:28:35;;;;;;;0.00;0.00;;;;;;;;;;4943838;29;20328;-85
2024/01/31 08:31:04;;;;;;;0.00;0.00;;;;;;;;;;4960845;28;20035;-86
2024/01/31 08:33:30;;;;;;;0.00;0.00;;;;;;;;;;4932609;29;20027;-86
2024/01/31 08:35:56;;;;;;;0.00;0.00;;;;;;;;;;4963974;28;20032;-86
2024/01/31 08:38:23;;;;;;;0.00;0.00;;;;;;;;;;4929903;29;20057;-87
2024/01/31 08:40:49;;;;;;;0.00;0.00;;;;;;;;;;4914551;29;20031;-87
2024/01/31 08:43:14;;;;;;;0.00;0.00;;;;;;;;;;4948159;29;20125;-87
2024/01/31 08:45:45;;;;;;;0.00;0.00;;;;;;;;;;4942316;29;20095;-87
2024/01/31 08:48:11;;;;;;;0.00;0.00;;;;;;;;;;4941231;29;20035;-86
2024/01/31 08:50:37;;;;;;;0.10;0.00;;;;;;;;;;4971001;29;20038;-86
2024/01/31 08:53:02;;;;;;;0.00;0.00;;;;;;;;;;4940748;29;20103;-85
2024/01/31 08:55:37;;;;;;;0.00;0.00;;;;;;;;;;4939592;29;20108;-85
2024/01/31 08:58:15;;;;;;;0.00;0.00;;;;;;;;;;4916460;29;20050;-85
2024/01/31 09:00:41;;;;;;;0.00;0.00;;;;;;;;;;4914371;29;20024;-85
2024/01/31 09:03:07;;;;;;;0.00;0.00;;;;;;;;;;4944590;29;20050;-86
2024/01/31 09:05:32;;;;;;;0.00;0.00;;;;;;;;;;4939552;29;20023;-86
2024/01/31 09:07:59;;;;;;;0.00;0.00;;;;;;;;;;4928068;29;20078;-87
2024/01/31 09:10:26;;;;;;;0.00;0.00;;;;;;;;;;4958936;29;20138;-86
2024/01/31 09:12:53;;;;;;;0.00;0.00;;;;;;;;;;4941628;29;20118;-84
2024/01/31 09:15:25;;;;;;;0.00;0.00;;;;;;;;;;4943461;29;20034;-86
2024/01/31 09:17:58;;;;;;;0.00;0.00;;;;;;;;;;4939151;29;20094;-86
2024/01/31 09:20:44;;;;;;;0.00;0.00;;;;;;;;;;4943289;29;20043;-85
2024/01/31 09:23:10;;;;;;;0.00;0.00;;;;;;;;;;4946681;29;20039;-85
2024/01/31 09:25:42;;;;;;;0.00;0.00;;;;;;;;;;4947145;29;20481;-86
2024/01/31 09:28:10;;;;;;;0.00;0.00;;;;;;;;;;4947269;29;20031;-86
2024/01/31 09:30:38;;;;;;;0.00;0.00;;;;;;;;;;4952095;29;20066;-87
2024/01/31 09:33:04;;;;;;;0.00;0.00;;;;;;;;;;4946385;29;20058;-87
2024/01/31 09:35:31;;;;;;;0.00;0.00;;;;;;;;;;4928704;29;20034;-86
2024/01/31 09:37:56;;;;;;;0.00;0.00;;;;;;;;;;4944087;29;20034;-85
2024/01/31 09:40:23;;;;;;;0.00;0.00;;;;;;;;;;4929412;29;20063;-86
2024/01/31 09:43:02;;;;;;;0.00;0.00;;;;;;;;;;4962258;29;20107;-86
2024/01/31 09:45:37;;;;;;;0.00;0.00;;;;;;;;;;4948058;28;20454;-84
2024/01/31 09:48:11;;;;;;;0.00;0.00;;;;;;;;;;4930900;28;20034;-87
2024/01/31 09:50:37;;;;;;;0.00;0.00;;;;;;;;;;4947500;28;20047;-87
2024/01/31 09:53:26;;;;;;;0.00;0.00;;;;;;;;;;4958706;29;20117;-84
2024/01/31 09:55:55;;;;;;;0.00;0.00;;;;;;;;;;4943820;29;20031;-87
2024/01/31 09:58:21;;;;;;;0.00;0.00;;;;;;;;;;4934368;28;20078;-83
2024/01/31 10:00:51;;;;;;;0.00;0.00;;;;;;;;;;4967542;28;20133;-82
2024/01/31 10:03:17;;;;;;;0.00;0.00;;;;;;;;;;4971246;28;20092;-80
2024/01/31 10:05:42;;;;;;;0.00;0.00;;;;;;;;;;4971921;28;20038;-81
2024/01/31 10:08:08;;;;;;;0.00;0.00;;;;;;;;;;4939387;29;20524;-80
2024/01/31 10:10:34;;;;;;;0.00;0.00;;;;;;;;;;4939897;28;20065;-82
2024/01/31 10:12:59;;;;;;;0.00;0.00;;;;;;;;;;4937832;29;20031;-80
2024/01/31 10:15:25;;;;;;;0.00;0.00;;;;;;;;;;4952723;28;20617;-80
2024/01/31 10:17:50;;;;;;;0.00;0.00;;;;;;;;;;4957192;28;20464;-79
2024/01/31 10:20:16;;;;;;;0.00;0.00;;;;;;;;;;4957385;28;20575;-82
2024/01/31 10:22:43;;;;;;;0.00;0.00;;;;;;;;;;4975103;28;20519;-79
2024/01/31 10:25:10;;;;;;;0.00;0.00;;;;;;;;;;4955887;28;20519;-79
2024/01/31 10:27:36;;;;;;;0.00;0.00;;;;;;;;;;4955200;28;20705;-79
2024/01/31 10:30:07;;;;;;;0.00;0.00;;;;;;;;;;4938883;28;20070;-80
2024/01/31 10:32:35;;;;;;;0.00;0.00;;;;;;;;;;4941302;29;20054;-84
2024/01/31 10:35:04;;;;;;;0.00;0.00;;;;;;;;;;4943525;28;20117;-82
2024/01/31 10:37:30;;;;;;;0.00;0.00;;;;;;;;;;4943952;28;20131;-81
2024/01/31 10:39:56;;;;;;;0.00;0.00;;;;;;;;;;4942750;28;20170;-81
2024/01/31 10:42:22;;;;;;;0.00;0.00;;;;;;;;;;4934760;28;20046;-81
2024/01/31 10:44:50;;;;;;;0.00;0.00;;;;;;;;;;4941833;28;20027;-83
2024/01/31 10:47:16;;;;;;;0.00;0.00;;;;;;;;;;4956673;28;20026;-81
2024/01/31 10:49:42;;;;;;;0.00;0.00;;;;;;;;;;4957587;28;20090;-82
2024/01/31 10:52:10;;;;;;;0.00;0.00;;;;;;;;;;4955601;29;20134;-82
2024/01/31 10:54:39;;;;;;;0.00;0.00;;;;;;;;;;4959034;28;20027;-81
2024/01/31 10:57:05;;;;;;;0.00;0.00;;;;;;;;;;4943478;28;20027;-82
2024/01/31 10:59:36;;;;;;;0.00;0.00;;;;;;;;;;4960867;28;20033;-82
2024/01/31 11:02:01;;;;;;;0.00;0.00;;;;;;;;;;4962716;28;20023;-82
2024/01/31 11:04:27;;;;;;;0.00;0.00;;;;;;;;;;4950104;28;20464;-85
2024/01/31 11:07:00;;;;;;;0.00;0.00;;;;;;;;;;4937911;29;20169;-87
2024/01/31 11:09:30;;;;;;;0.00;0.00;;;;;;;;;;4951149;29;20095;-87
2024/01/31 11:12:05;;;;;;;0.00;0.00;;;;;;;;;;4934232;28;20034;-84
2024/01/31 11:14:31;;;;;;;0.00;0.00;;;;;;;;;;4974204;28;20058;-84
2024/01/31 11:17:13;;;;;;;0.00;0.00;;;;;;;;;;4973462;28;20022;-84
2024/01/31 11:19:51;;;;;;;0.00;0.00;;;;;;;;;;4981833;28;20034;-82
2024/01/31 11:22:17;;;;;;;0.00;0.00;;;;;;;;;;4972193;28;20500;-83
2024/01/31 11:24:54;;;;;;;0.00;0.00;;;;;;;;;;4955931;28;20121;-83
2024/01/31 11:27:20;;;;;;;0.00;0.00;;;;;;;;;;4938608;29;20186;-83
2024/01/31 11:29:50;;;;;;;0.00;0.00;;;;;;;;;;4955217;29;20039;-83
2024/01/31 11:32:21;;;;;;;0.00;0.00;;;;;;;;;;4954262;29;20045;-84
2024/01/31 11:34:59;;;;;;;0.00;0.00;;;;;;;;;;4938736;29;20031;-87
2024/01/31 11:40:33;;;;;;;0.00;0.00;;;;;;;;;;4904098;29;20642;-86
2024/01/31 11:43:03;;;;;;;0.00;0.00;;;;;;;;;;4919619;29;20118;-86
2024/01/31 11:45:29;;;;;;;0.00;0.00;;;;;;;;;;4905111;29;20055;-85
2024/01/31 11:47:57;;;;;;;0.00;0.00;;;;;;;;;;4919091;29;20458;-85
2024/01/31 11:50:24;;;;;;;0.00;0.00;;;;;;;;;;4920093;29;20368;-85
2024/01/31 11:52:50;;;;;;;0.00;0.00;;;;;;;;;;4919619;29;20373;-85
2024/01/31 11:55:22;;;;;;;0.00;0.00;;;;;;;;;;4952404;28;20028;-85
2024/01/31 11:57:49;;;;;;;0.00;0.00;;;;;;;;;;4938019;29;20062;-85
2024/01/31 12:00:15;;;;;;;0.00;0.00;;;;;;;;;;4938674;29;20465;-83
2024/01/31 12:02:41;;;;;;;0.00;0.00;;;;;;;;;;4953420;28;20027;-85
2024/01/31 12:05:07;;;;;;;0.00;0.00;;;;;;;;;;4937831;29;20034;-83
2024/01/31 12:07:32;;;;;;;0.00;0.00;;;;;;;;;;4940386;29;20036;-83
2024/01/31 12:09:59;;;;;;;0.00;0.00;;;;;;;;;;4941508;29;20043;-84
2024/01/31 12:12:26;;;;;;;0.00;0.00;;;;;;;;;;4926297;29;20039;-85
2024/01/31 12:14:53;;;;;;;0.00;0.00;;;;;;;;;;4957089;28;20082;-85
2024/01/31 12:17:25;;;;;;;0.00;0.00;;;;;;;;;;4977452;28;20113;-85
2024/01/31 12:20:01;;;;;;;0.00;0.00;;;;;;;;;;4943791;28;20042;-83
2024/01/31 12:22:29;;;;;;;0.00;0.00;;;;;;;;;;4964729;28;20034;-83
2024/01/31 12:24:55;;;;;;;0.00;0.00;;;;;;;;;;4943947;28;20165;-83
2024/01/31 12:27:20;;;;;;;0.00;0.00;;;;;;;;;;4968086;28;20052;-84
2024/01/31 12:29:46;;;;;;;0.00;0.00;;;;;;;;;;4959188;28;20034;-84
2024/01/31 12:32:12;;;;;;;0.00;0.00;;;;;;;;;;4976288;28;20146;-84
2024/01/31 12:34:42;;;;;;;0.00;0.00;;;;;;;;;;4959107;28;20034;-85
2024/01/31 12:37:08;;;;;;;;;;;;;;;;;;4959989;28;20031;-84
2024/01/31 12:39:35;;;;;;;0.00;0.00;;;;;;;;;;4958778;28;20282;-84
2024/01/31 12:42:02;;;;;;;0.00;0.00;;;;;;;;;;4945121;28;20448;-84
2024/01/31 12:44:27;;;;;;;0.00;0.00;;;;;;;;;;4959136;28;20069;-84
2024/01/31 12:46:53;;;;;;;0.00;0.00;;;;;;;;;;4976206;28;20034;-84
2024/01/31 12:49:19;;;;;;;0.00;0.00;;;;;;;;;;4941163;28;20045;-84
2024/01/31 12:51:44;;;;;;;0.00;0.00;;;;;;;;;;4950993;28;20039;-85
2024/01/31 12:54:10;;;;;;;0.00;0.00;;;;;;;;;;4939297;29;20126;-85
2024/01/31 12:56:35;;;;;;;0.00;0.00;;;;;;;;;;4926272;29;20164;-85
2024/01/31 12:59:01;;;;;;;0.00;0.00;;;;;;;;;;4926678;29;20042;-85
2024/01/31 13:01:26;;;;;;;0.00;0.00;;;;;;;;;;4945047;28;20035;-85
2024/01/31 13:03:52;;;;;;;0.00;0.00;;;;;;;;;;4948230;29;20040;-85
2024/01/31 13:06:18;;;;;;;0.00;0.00;;;;;;;;;;4942778;28;20035;-85
2024/01/31 13:08:43;;;;;;;0.00;0.00;;;;;;;;;;4911559;29;20094;-85
2024/01/31 13:11:12;;;;;;;0.00;0.00;;;;;;;;;;4943177;28;20059;-85
2024/01/31 13:13:38;;;;;;;0.00;0.00;;;;;;;;;;4912952;29;20026;-85
2024/01/31 13:16:06;;;;;;;0.00;0.00;;;;;;;;;;4925850;29;20054;-84
2024/01/31 13:18:31;;;;;;;0.00;0.00;;;;;;;;;;4972442;28;20380;-84
2024/01/31 13:20:57;;;;;;;0.00;0.00;;;;;;;;;;4977554;28;20042;-84
2024/01/31 13:23:22;;;;;;;0.00;0.00;;;;;;;;;;4978199;28;20030;-84
2024/01/31 13:25:48;;;;;;;0.00;0.00;;;;;;;;;;4960557;28;20047;-82
2024/01/31 13:28:16;;;;;;;0.00;0.00;;;;;;;;;;4959066;28;20031;-82
2024/01/31 13:30:45;;;;;;;0.00;0.00;;;;;;;;;;4941563;29;20128;-82
2024/01/31 13:33:10;;;;;;;0.00;0.00;;;;;;;;;;4958200;29;20035;-83
2024/01/31 13:35:36;;;;;;;0.00;0.00;;;;;;;;;;4925281;29;20031;-81
2024/01/31 13:38:01;;;;;;;0.00;0.00;;;;;;;;;;4941130;29;20121;-82
2024/01/31 13:40:27;;;;;;;0.00;0.00;;;;;;;;;;4941025;29;20518;-84
2024/01/31 13:42:52;;;;;;;0.00;0.00;;;;;;;;;;4941097;29;20027;-84
2024/01/31 13:45:21;;;;;;;0.00;0.00;;;;;;;;;;4957924;28;20516;-84
2024/01/31 13:47:47;;;;;;;0.00;0.00;;;;;;;;;;4940783;29;20532;-83
2024/01/31 13:50:12;;;;;;;0.00;0.00;;;;;;;;;;4924590;29;20114;-81
2024/01/31 13:52:38;;;;;;;0.00;0.00;;;;;;;;;;4936701;29;20121;-84
2024/01/31 13:55:04;;;;;;;0.00;0.00;;;;;;;;;;4957809;29;20039;-84
2024/01/31 13:57:29;;;;;;;0.00;0.00;;;;;;;;;;4925263;29;20039;-84
2024/01/31 13:59:56;;;;;;;0.00;0.00;;;;;;;;;;4957899;29;20038;-84
2024/01/31 14:02:22;;;;;;;0.00;0.00;;;;;;;;;;4934053;28;20030;-84
2024/01/31 14:04:48;;;;;;;0.00;0.00;;;;;;;;;;4969377;28;20023;-84
2024/01/31 14:07:13;;;;;;;0.00;0.00;;;;;;;;;;4940400;29;20499;-83
2024/01/31 14:09:39;;;;;;;0.00;0.00;;;;;;;;;;4940828;29;20043;-84
2024/01/31 14:12:06;;;;;;;0.00;0.00;;;;;;;;;;4940902;29;20027;-84
2024/01/31 14:14:31;;;;;;;0.00;0.00;;;;;;;;;;4909936;29;20031;-84
2024/01/31 14:16:58;;;;;;;0.00;0.00;;;;;;;;;;4924771;29;20457;-85
2024/01/31 14:19:24;;;;;;;0.00;0.00;;;;;;;;;;4924237;29;20086;-84
2024/01/31 14:21:49;;;;;;;0.00;0.00;;;;;;;;;;4957563;28;20414;-84
2024/01/31 14:24:15;;;;;;;0.00;0.00;;;;;;;;;;4940527;29;20062;-84
2024/01/31 14:26:40;;;;;;;0.00;0.00;;;;;;;;;;4940169;29;20074;-83
2024/01/31 14:29:06;;;;;;;0.00;0.00;;;;;;;;;;4940749;29;20126;-83
2024/01/31 14:31:32;;;;;;;0.00;0.00;;;;;;;;;;4909182;29;20031;-84
2024/01/31 14:33:58;;;;;;;0.00;0.00;;;;;;;;;;4957735;28;20042;-82
2024/01/31 14:36:24;;;;;;;0.00;0.00;;;;;;;;;;4940174;29;20031;-83
2024/01/31 14:38:50;;;;;;;0.00;0.00;;;;;;;;;;4909216;29;20023;-83
2024/01/31 14:41:16;;;;;;;0.00;0.00;;;;;;;;;;4908888;29;20043;-83
2024/01/31 14:44:01;;;;;;;0.00;0.00;;;;;;;;;;4940328;29;20054;-84
2024/01/31 14:46:27;;;;;;;0.00;0.00;;;;;;;;;;4940315;29;20039;-84
2024/01/31 14:48:52;;;;;;;0.00;0.00;;;;;;;;;;4908873;29;20046;-84
2024/01/31 14:51:18;;;;;;;0.00;0.00;;;;;;;;;;4940197;29;20039;-83
2024/01/31 14:53:43;;;;;;;0.00;0.00;;;;;;;;;;4920363;28;20043;-83
2024/01/31 14:56:11;;;;;;;0.00;0.00;;;;;;;;;;4958714;28;20037;-83
2024/01/31 14:58:36;;;;;;;0.00;0.00;;;;;;;;;;4976243;28;20341;-83
2024/01/31 15:01:02;;;;;;;0.00;0.00;;;;;;;;;;4953555;29;20033;-80
2024/01/31 15:03:28;;;;;;;0.00;0.00;;;;;;;;;;4958001;28;20500;-82
2024/01/31 15:05:53;;;;;;;0.00;0.00;;;;;;;;;;4972748;28;20064;-83
2024/01/31 15:08:19;;;;;;;0.00;0.00;;;;;;;;;;4956547;28;20069;-83